Time;durP1;ratioP1;P1;durP2;ratioP2;P2;SDS_P1;SDS_P2;PMS_P1;PMS_P2;Temp;Humidity;BMP_temperature;BMP_pressure;BME280_temperature;BME280_humidity;BME280_pressure;Samples;Min_cycle;Max_cycle;Signal;HPM_P1;HPM_P2
2022/03/07 00:01:31;;;;;;;16.48;7.68;;;;;;;2.47;100.00;96801.38;5083990;28;20044;-57
2022/03/07 00:03:58;;;;;;;20.55;10.02;;;;;;;2.07;100.00;96731.72;5083619;28;20490;-59
2022/03/07 00:06:25;;;;;;;19.33;9.27;;;;;;;2.54;100.00;96801.72;5083337;28;20147;-60
2022/03/07 00:08:52;;;;;;;14.27;8.02;;;;;;;2.54;100.00;96801.72;5083740;28;20059;-59
2022/03/07 00:11:19;;;;;;;12.63;7.30;;;;;;;2.50;100.00;96795.28;5088969;28;20055;-60
2022/03/07 00:13:47;;;;;;;15.02;7.82;;;;;;;1.99;100.00;96702.47;5088784;28;20479;-60
2022/03/07 00:16:15;;;;;;;23.80;9.63;;;;;;;2.56;100.00;96788.53;5088882;28;20044;-59
2022/03/07 00:18:42;;;;;;;25.75;10.75;;;;;;;2.50;100.00;96792.53;5090329;28;20135;-60
2022/03/07 00:21:09;;;;;;;25.17;12.05;;;;;;;2.18;100.00;96741.97;5090353;28;20055;-59
2022/03/07 00:23:36;;;;;;;28.02;11.82;;;;;;;2.55;100.00;96792.38;5090139;28;20107;-61
2022/03/07 00:26:04;;;;;;;21.08;10.13;;;;;;;1.93;100.00;96673.75;5089966;28;20048;-58
2022/03/07 00:28:31;;;;;;;41.28;16.23;;;;;;;2.61;100.00;96791.06;5086542;28;20044;-59
2022/03/07 00:30:58;;;;;;;20.65;10.07;;;;;;;2.42;100.00;96793.38;5070091;28;20066;-58
2022/03/07 00:33:25;;;;;;;17.45;8.45;;;;;;;2.51;100.00;96780.50;5068622;28;20053;-60
2022/03/07 00:35:52;;;;;;;20.15;9.30;;;;;;;2.55;100.00;96781.44;5070348;28;20044;-59
2022/03/07 00:38:18;;;;;;;19.17;10.23;;;;;;;2.53;100.00;96772.78;5069923;28;20523;-61
2022/03/07 00:40:45;;;;;;;16.23;8.20;;;;;;;2.42;100.00;96776.97;5069997;28;20387;-59
2022/03/07 00:43:12;;;;;;;19.15;9.38;;;;;;;2.47;100.00;96769.41;5068393;28;20060;-62
2022/03/07 00:45:39;;;;;;;18.65;9.10;;;;;;;2.48;100.00;96770.22;5070092;28;20052;-60
2022/03/07 00:48:08;;;;;;;20.10;8.90;;;;;;;2.48;100.00;96770.22;5069753;28;20060;-61
2022/03/07 00:50:35;;;;;;;24.15;9.75;;;;;;;2.38;100.00;96751.41;5070434;28;20418;-57
2022/03/07 00:53:02;;;;;;;19.48;9.73;;;;;;;2.56;100.00;96777.59;5070235;28;20055;-58
2022/03/07 00:55:29;;;;;;;23.02;8.80;;;;;;;2.13;100.00;96697.63;5070211;28;20056;-60
2022/03/07 00:57:55;;;;;;;20.00;9.15;;;;;;;1.58;100.00;96643.75;5070110;28;20057;-58
2022/03/07 01:00:22;;;;;;;15.18;8.75;;;;;;;2.45;100.00;96760.72;5069534;28;20051;-59
2022/03/07 01:02:49;;;;;;;25.15;10.93;;;;;;;2.50;100.00;96757.81;5069735;28;20063;-61
2022/03/07 01:05:16;;;;;;;26.02;11.18;;;;;;;2.54;100.00;96757.97;5069874;28;20048;-58
2022/03/07 01:07:43;;;;;;;33.28;15.95;;;;;;;2.59;100.00;96761.31;5067681;28;20063;-58
2022/03/07 01:10:09;;;;;;;30.83;13.60;;;;;;;2.49;100.00;96744.47;5069536;28;20049;-61
2022/03/07 01:12:36;;;;;;;31.38;14.65;;;;;;;2.35;100.00;96741.13;5069902;28;20059;-58
2022/03/07 01:15:04;;;;;;;23.55;12.20;;;;;;;2.29;100.00;96735.03;5068029;28;20585;-59
2022/03/07 01:17:31;;;;;;;22.67;11.23;;;;;;;1.99;100.00;96664.25;5069139;28;20567;-61
2022/03/07 01:19:58;;;;;;;16.80;8.60;;;;;;;2.38;100.00;96733.09;5069492;28;20260;-59
2022/03/07 01:22:25;;;;;;;17.33;8.30;;;;;;;2.00;100.00;96661.19;5066366;28;20453;-60
2022/03/07 01:24:51;;;;;;;15.82;7.85;;;;;;;2.25;100.00;96711.41;5066014;28;20048;-59
2022/03/07 01:27:19;;;;;;;13.07;6.75;;;;;;;1.72;100.00;96708.28;5064854;28;20052;-61
2022/03/07 01:29:46;;;;;;;12.30;5.47;;;;;;;1.48;100.00;96712.31;5078794;28;20052;-60
2022/03/07 01:32:12;;;;;;;14.77;6.60;;;;;;;1.68;100.00;96723.69;5086407;28;20052;-60
2022/03/07 01:34:39;;;;;;;15.70;8.27;;;;;;;1.73;100.00;96729.00;5086149;28;20048;-57
2022/03/07 01:37:06;;;;;;;18.67;8.75;;;;;;;1.67;100.00;96714.72;5086262;28;20051;-60
2022/03/07 01:39:33;;;;;;;18.60;8.90;;;;;;;1.41;100.00;96736.53;5086368;28;20062;-58
2022/03/07 01:41:59;;;;;;;14.95;6.55;;;;;;;1.84;100.00;96716.63;5085887;28;20067;-60
2022/03/07 01:44:30;;;;;;;16.77;7.43;;;;;;;1.84;100.00;96694.78;5084464;28;20056;-59
2022/03/07 01:46:57;;;;;;;16.23;7.78;;;;;;;2.07;100.00;96743.41;5086075;28;20044;-60
2022/03/07 01:49:27;;;;;;;16.98;8.57;;;;;;;1.49;100.00;96640.22;5086495;28;20048;-60
2022/03/07 01:51:54;;;;;;;15.88;8.30;;;;;;;2.19;100.00;96761.91;5085740;28;20533;-59
2022/03/07 01:54:21;;;;;;;18.52;8.30;;;;;;;2.21;100.00;96756.91;5086091;28;20051;-60
2022/03/07 01:56:50;;;;;;;22.65;10.60;;;;;;;2.30;100.00;96757.69;5085963;28;20067;-57
2022/03/07 01:59:22;;;;;;;21.48;9.52;;;;;;;2.40;100.00;96752.69;5085936;28;20050;-61
2022/03/07 02:01:49;;;;;;;24.10;10.23;;;;;;;2.50;100.00;96751.53;5085761;28;20052;-59
2022/03/07 02:04:16;;;;;;;17.88;9.48;;;;;;;2.43;100.00;96734.84;5085934;28;20079;-59
2022/03/07 02:06:45;;;;;;;14.63;7.70;;;;;;;2.28;100.00;96754.47;5084226;28;20481;-60
2022/03/07 02:09:12;;;;;;;18.45;7.95;;;;;;;2.38;100.00;96737.75;5083896;28;20058;-57
2022/03/07 02:11:39;;;;;;;14.82;6.60;;;;;;;2.28;100.00;96732.63;5083866;28;20081;-58
2022/03/07 02:14:16;;;;;;;15.00;6.80;;;;;;;2.37;100.00;96752.56;5085362;28;20442;-60
2022/03/07 02:16:44;;;;;;;16.85;8.23;;;;;;;2.43;100.00;96751.25;5075586;28;20064;-57
2022/03/07 02:19:12;;;;;;;20.45;9.23;;;;;;;2.49;100.00;96760.88;5085605;28;20055;-60
2022/03/07 02:21:48;;;;;;;21.42;9.23;;;;;;;2.58;100.00;96758.91;5085786;28;20530;-59
2022/03/07 02:24:17;;;;;;;14.73;7.35;;;;;;;2.63;100.00;96758.75;5085404;28;20135;-59
2022/03/07 02:27:01;;;;;;;12.48;7.10;;;;;;;0.12;100.00;96357.94;5085296;28;20499;-59
2022/03/07 02:29:29;;;;;;;16.13;7.88;;;;;;;2.47;100.00;96768.59;5073954;28;20064;-58
2022/03/07 02:31:57;;;;;;;13.57;6.18;;;;;;;1.92;100.00;96760.31;5064879;28;20053;-60
2022/03/07 02:34:24;;;;;;;16.15;6.78;;;;;;;1.81;100.00;96760.94;5063376;28;20052;-57
2022/03/07 02:36:51;;;;;;;14.82;7.13;;;;;;;2.03;100.00;96763.50;5064845;28;20053;-59
2022/03/07 02:39:19;;;;;;;19.88;7.22;;;;;;;1.92;100.00;96762.22;5064696;28;20062;-57
2022/03/07 02:41:46;;;;;;;18.70;6.18;;;;;;;1.83;100.00;96758.72;5064945;28;20044;-60
2022/03/07 02:44:13;;;;;;;19.35;6.38;;;;;;;1.90;100.00;96769.97;5064509;28;20063;-60
2022/03/07 02:46:43;;;;;;;17.23;6.40;;;;;;;1.84;100.00;96766.56;5064732;28;20493;-60
2022/03/07 02:49:09;;;;;;;17.77;6.78;;;;;;;1.52;100.00;96767.84;5064404;28;20139;-59
2022/03/07 02:51:36;;;;;;;15.30;5.50;;;;;;;1.38;100.00;96767.19;5064679;28;20048;-60
2022/03/07 02:54:03;;;;;;;17.60;7.00;;;;;;;1.53;100.00;96766.72;5064467;28;20060;-60
2022/03/07 02:56:31;;;;;;;14.77;6.53;;;;;;;1.67;100.00;96765.75;5062677;28;20048;-60
2022/03/07 02:58:57;;;;;;;16.63;6.95;;;;;;;1.68;100.00;96770.09;5064426;28;20502;-61
2022/03/07 03:01:24;;;;;;;15.20;6.75;;;;;;;1.55;100.00;96750.81;5064567;28;20048;-59
2022/03/07 03:03:51;;;;;;;18.60;8.43;;;;;;;1.47;100.00;96713.41;5064273;28;20056;-58
2022/03/07 03:06:18;;;;;;;17.17;7.40;;;;;;;1.99;100.00;96768.03;5062888;28;20048;-60
2022/03/07 03:08:45;;;;;;;13.95;6.78;;;;;;;2.09;100.00;96789.53;5063913;28;20048;-59
2022/03/07 03:11:11;;;;;;;16.35;7.38;;;;;;;2.14;100.00;96775.72;5064208;28;20071;-60
2022/03/07 03:13:38;;;;;;;34.75;14.00;;;;;;;2.12;100.00;96748.72;5064078;28;20078;-59
2022/03/07 03:16:05;;;;;;;22.00;11.13;;;;;;;2.15;100.00;96752.75;5064299;28;20048;-57
2022/03/07 03:18:32;;;;;;;26.15;11.57;;;;;;;2.26;100.00;96773.94;5064431;28;20056;-57
2022/03/07 03:20:59;;;;;;;28.27;11.70;;;;;;;2.00;100.00;96715.00;5064050;28;20056;-60
2022/03/07 03:23:25;;;;;;;27.17;13.18;;;;;;;2.29;100.00;96772.50;5063606;28;20056;-57
2022/03/07 03:25:53;;;;;;;29.52;13.18;;;;;;;2.25;100.00;96775.06;5064069;28;20505;-59
2022/03/07 03:28:21;;;;;;;33.20;12.98;;;;;;;2.33;100.00;96779.72;5064642;28;20067;-60
2022/03/07 03:30:47;;;;;;;37.92;15.73;;;;;;;2.33;100.00;96778.91;5084390;28;20051;-60
2022/03/07 03:33:14;;;;;;;40.85;16.48;;;;;;;2.16;100.00;96736.03;5084308;28;20048;-57
2022/03/07 03:35:41;;;;;;;33.90;14.93;;;;;;;2.45;100.00;96773.59;5084452;28;20055;-58
2022/03/07 03:38:08;;;;;;;30.30;13.98;;;;;;;2.22;100.00;96736.66;5084702;28;20055;-59
2022/03/07 03:40:36;;;;;;;27.30;12.35;;;;;;;2.29;100.00;96783.44;5084337;28;20062;-59
2022/03/07 03:43:03;;;;;;;27.70;12.32;;;;;;;2.14;100.00;96776.53;5083806;28;20063;-58
2022/03/07 03:45:30;;;;;;;22.80;12.35;;;;;;;2.37;100.00;96775.19;5083133;28;20044;-58
2022/03/07 03:47:59;;;;;;;25.13;11.90;;;;;;;1.11;100.00;96579.25;5083866;28;20075;-59
2022/03/07 03:50:26;;;;;;;20.80;10.57;;;;;;;2.43;100.00;96779.38;5084142;28;20154;-58
2022/03/07 03:52:53;;;;;;;19.98;9.93;;;;;;;2.43;100.00;96773.13;5083780;28;20048;-59
2022/03/07 03:55:21;;;;;;;16.15;8.55;;;;;;;2.33;100.00;96779.72;5082262;28;20055;-60
2022/03/07 03:57:48;;;;;;;17.00;8.23;;;;;;;2.40;100.00;96779.22;5083701;28;20341;-60
2022/03/07 04:00:18;;;;;;;21.38;8.80;;;;;;;2.44;100.00;96785.63;5083926;28;20058;-60
2022/03/07 04:02:46;;;;;;;24.25;11.52;;;;;;;2.50;100.00;96789.81;5083459;28;20044;-57
2022/03/07 04:05:14;;;;;;;25.15;10.45;;;;;;;2.59;100.00;96787.88;5083760;28;20447;-60
2022/03/07 04:07:42;;;;;;;23.63;10.57;;;;;;;1.99;100.00;96691.56;5083392;28;20056;-60
2022/03/07 04:10:09;;;;;;;24.35;11.73;;;;;;;2.16;100.00;96702.44;5083584;28;20520;-58
2022/03/07 04:12:36;;;;;;;27.63;13.32;;;;;;;2.64;100.00;96782.25;5083882;28;20056;-59
2022/03/07 04:15:04;;;;;;;28.42;12.40;;;;;;;2.77;100.00;96773.00;5084052;28;20055;-58
2022/03/07 04:17:31;;;;;;;43.22;17.08;;;;;;;2.67;100.00;96778.84;5083827;28;20044;-60
2022/03/07 04:19:58;;;;;;;76.63;29.33;;;;;;;2.54;100.00;96757.97;5083493;28;20294;-61
2022/03/07 04:22:25;;;;;;;88.90;31.23;;;;;;;2.28;100.00;96732.63;5081956;28;20052;-60
2022/03/07 04:24:51;;;;;;;63.22;23.40;;;;;;;0.60;100.00;96437.53;5082001;28;20256;-57
2022/03/07 04:27:18;;;;;;;30.60;14.43;;;;;;;2.63;100.00;96772.41;5083315;28;20055;-59
2022/03/07 04:29:45;;;;;;;47.40;19.08;;;;;;;2.24;100.00;96720.75;5071108;28;20580;-57
2022/03/07 04:32:12;;;;;;;42.55;18.92;;;;;;;2.57;100.00;96757.31;5063016;28;20576;-60
2022/03/07 04:34:38;;;;;;;38.00;16.08;;;;;;;2.51;100.00;96758.63;5063563;28;20067;-58
2022/03/07 04:37:05;;;;;;;34.72;16.10;;;;;;;2.64;100.00;96757.63;5062157;28;20052;-59
2022/03/07 04:39:32;;;;;;;78.00;29.23;;;;;;;2.50;100.00;96762.47;5063479;28;20048;-60
2022/03/07 04:41:58;;;;;;;60.63;20.40;;;;;;;2.00;100.00;96764.16;5063023;28;20511;-59
2022/03/07 04:44:25;;;;;;;52.72;17.70;;;;;;;1.25;100.00;96683.56;5062946;28;20129;-60
2022/03/07 04:46:52;;;;;;;29.98;12.88;;;;;;;1.78;100.00;96764.31;5063151;28;20570;-59
2022/03/07 04:49:19;;;;;;;30.48;11.43;;;;;;;1.78;100.00;96767.06;5063090;28;20065;-59
2022/03/07 04:51:46;;;;;;;30.00;12.52;;;;;;;1.98;100.00;96766.41;5063102;28;20048;-60
2022/03/07 04:54:16;;;;;;;23.08;10.00;;;;;;;2.10;100.00;96766.56;5061819;28;20482;-60
2022/03/07 04:56:43;;;;;;;20.48;8.25;;;;;;;1.32;100.00;96705.72;5063766;28;20067;-60
2022/03/07 04:59:15;;;;;;;19.70;7.90;;;;;;;1.04;100.00;96665.41;5066908;28;20053;-58
2022/03/07 05:01:41;;;;;;;18.20;8.48;;;;;;;1.28;100.00;96710.19;5066770;28;20137;-60
2022/03/07 05:04:09;;;;;;;20.00;8.60;;;;;;;1.65;100.00;96768.00;5066257;28;20060;-58
2022/03/07 05:06:36;;;;;;;21.40;9.38;;;;;;;0.94;100.00;96682.06;5065160;28;20067;-57
2022/03/07 05:09:03;;;;;;;19.33;9.20;;;;;;;1.64;100.00;96771.88;5066507;28;20054;-58
2022/03/07 05:11:30;;;;;;;26.55;9.85;;;;;;;1.62;100.00;96758.53;5066513;28;20420;-59
2022/03/07 05:13:57;;;;;;;29.88;10.15;;;;;;;1.76;100.00;96736.53;5066805;28;20056;-59
2022/03/07 05:16:23;;;;;;;29.52;11.13;;;;;;;1.60;100.00;96681.63;5066129;28;20060;-59
2022/03/07 05:18:50;;;;;;;26.10;11.00;;;;;;;2.19;100.00;96849.31;5066499;28;20056;-59
2022/03/07 05:21:17;;;;;;;23.13;10.23;;;;;;;2.41;100.00;96758.97;5065824;28;20045;-59
2022/03/07 05:23:44;;;;;;;24.58;10.38;;;;;;;2.17;100.00;96764.94;5066516;28;20501;-59
2022/03/07 05:26:10;;;;;;;30.33;10.68;;;;;;;2.44;100.00;96758.31;5065051;28;20052;-60
2022/03/07 05:28:37;;;;;;;20.52;9.77;;;;;;;2.32;100.00;96733.59;5067302;28;20578;-59
2022/03/07 05:31:04;;;;;;;30.38;12.73;;;;;;;2.64;100.00;96757.63;5086265;28;20056;-58
2022/03/07 05:33:30;;;;;;;52.10;21.42;;;;;;;2.75;100.00;96753.41;5086300;28;20533;-59
2022/03/07 05:35:57;;;;;;;102.47;32.58;;;;;;;2.79;100.00;96748.88;5086290;28;20055;-58
2022/03/07 05:38:24;;;;;;;78.15;29.73;;;;;;;2.88;100.00;96752.38;5085887;28;20051;-58
2022/03/07 05:40:50;;;;;;;59.88;23.50;;;;;;;2.95;100.00;96756.22;5086036;28;20052;-57
2022/03/07 05:43:17;;;;;;;40.33;20.63;;;;;;;3.05;100.00;96746.84;5084015;28;20055;-58
2022/03/07 05:45:44;;;;;;;42.42;20.42;;;;;;;3.07;100.00;96747.31;5086668;28;20427;-60
2022/03/07 05:48:11;;;;;;;59.80;25.05;;;;;;;3.09;100.00;96758.72;5065707;28;20503;-57
2022/03/07 05:50:37;;;;;;;70.13;31.98;;;;;;;3.11;100.00;96761.94;5065604;28;20044;-57
2022/03/07 05:53:04;;;;;;;73.80;30.42;;;;;;;3.14;100.00;96764.03;5065642;28;20053;-57
2022/03/07 05:55:31;;;;;;;59.15;25.20;;;;;;;3.10;100.00;96779.47;5065530;28;20056;-57
2022/03/07 05:58:00;;;;;;;69.00;27.98;;;;;;;3.03;100.00;96771.78;5065425;28;20135;-57
2022/03/07 06:00:28;;;;;;;60.75;25.17;;;;;;;3.08;100.00;96771.59;5065770;28;20056;-59
2022/03/07 06:02:56;;;;;;;71.45;29.38;;;;;;;2.94;100.00;96735.47;5065393;28;20112;-57
2022/03/07 06:05:23;;;;;;;61.63;25.77;;;;;;;3.26;100.00;96775.06;5065340;28;20610;-57
2022/03/07 06:07:50;;;;;;;58.90;24.23;;;;;;;3.08;100.00;96773.56;5064759;28;20055;-58
2022/03/07 06:10:16;;;;;;;43.80;18.35;;;;;;;2.57;100.00;96754.59;5065568;28;20547;-57
2022/03/07 06:12:43;;;;;;;37.80;16.33;;;;;;;2.66;100.00;96771.75;5065588;28;20059;-58
2022/03/07 06:15:15;;;;;;;46.85;24.48;;;;;;;2.72;100.00;96778.66;5065413;28;20495;-59
2022/03/07 06:17:57;;;;;;;33.15;16.10;;;;;;;2.71;100.00;96779.78;5065626;28;20059;-57
2022/03/07 06:20:26;;;;;;;36.60;15.40;;;;;;;2.70;100.00;96787.19;5064043;28;20052;-57
2022/03/07 06:22:54;;;;;;;35.50;15.18;;;;;;;2.84;100.00;96757.72;5065434;28;20048;-58
2022/03/07 06:25:21;;;;;;;35.85;15.38;;;;;;;2.94;100.00;96775.69;5063421;28;20052;-58
2022/03/07 06:27:48;;;;;;;32.90;13.95;;;;;;;2.98;100.00;96779.38;5064875;28;20048;-59
2022/03/07 06:30:15;;;;;;;26.25;11.57;;;;;;;2.88;100.00;96744.16;5076382;28;20060;-60
2022/03/07 06:32:41;;;;;;;23.08;11.32;;;;;;;3.32;100.00;96776.47;5083783;28;20430;-60
2022/03/07 06:35:12;;;;;;;27.00;12.27;;;;;;;3.42;100.00;96775.28;5084316;28;20447;-58
2022/03/07 06:37:46;;;;;;;27.23;12.32;;;;;;;3.35;100.00;96751.16;5085474;28;20124;-57
2022/03/07 06:40:13;;;;;;;26.63;11.82;;;;;;;3.50;100.00;96782.66;5085464;28;20079;-58
2022/03/07 06:42:39;;;;;;;27.75;13.15;;;;;;;3.33;100.00;96744.44;5083590;28;20052;-58
2022/03/07 06:45:07;;;;;;;24.63;13.00;;;;;;;3.22;100.00;96692.03;5084585;28;20063;-59
2022/03/07 06:47:34;;;;;;;23.83;12.60;;;;;;;3.82;100.00;96766.34;5085208;28;20486;-59
2022/03/07 06:50:01;;;;;;;22.55;10.95;;;;;;;3.95;100.00;96770.72;5084725;28;20510;-58
2022/03/07 06:52:27;;;;;;;30.45;15.27;;;;;;;4.06;99.77;96760.19;5083592;28;20055;-60
2022/03/07 06:54:54;;;;;;;39.05;20.08;;;;;;;4.14;99.12;96751.88;5085211;28;20063;-57
2022/03/07 06:57:21;;;;;;;55.97;26.67;;;;;;;4.14;97.21;96757.34;5083404;28;20064;-59
2022/03/07 06:59:49;;;;;;;49.15;23.85;;;;;;;4.14;97.13;96713.50;5079380;28;20056;-59
2022/03/07 07:02:16;;;;;;;41.22;20.42;;;;;;;4.38;95.70;96723.72;5057831;28;20047;-58
2022/03/07 07:04:43;;;;;;;47.35;24.42;;;;;;;4.77;93.05;96755.28;5051649;28;20055;-59
2022/03/07 07:07:10;;;;;;;61.92;30.45;;;;;;;4.83;92.42;96762.13;5054269;28;20356;-59
2022/03/07 07:09:37;;;;;;;71.57;32.85;;;;;;;4.91;92.95;96753.00;5062056;28;20538;-64
2022/03/07 07:12:05;;;;;;;69.18;34.90;;;;;;;2.31;91.63;96316.69;5062985;28;20048;-57
2022/03/07 07:14:31;;;;;;;58.28;29.17;;;;;;;5.15;90.39;96747.53;5062187;28;20434;-60
2022/03/07 07:16:58;;;;;;;62.65;31.13;;;;;;;4.96;89.77;96706.13;5063210;28;20059;-59
2022/03/07 07:19:25;;;;;;;63.80;29.83;;;;;;;5.41;87.91;96754.28;5062522;28;20049;-59
2022/03/07 07:21:52;;;;;;;65.38;30.27;;;;;;;4.82;86.79;96656.28;5061651;28;20048;-58
2022/03/07 07:24:19;;;;;;;70.70;44.85;;;;;;;5.12;86.31;96696.84;5061739;28;20079;-59
2022/03/07 07:26:45;;;;;;;929.38;83.30;;;;;;;5.20;95.36;96686.94;5059595;28;20049;-57
2022/03/07 07:29:12;;;;;;;1817.55;159.45;;;;;;;4.90;100.00;96619.72;5059801;28;20139;-60
2022/03/07 07:31:39;;;;;;;76.43;36.95;;;;;;;5.80;100.00;96709.56;5061198;28;20049;-56
2022/03/07 07:34:05;;;;;;;80.43;48.08;;;;;;;6.21;92.97;96752.47;5062684;28;20052;-58
2022/03/07 07:36:32;;;;;;;56.95;27.48;;;;;;;6.35;85.79;96752.84;5061601;28;20056;-60
2022/03/07 07:38:59;;;;;;;51.20;27.15;;;;;;;6.53;83.40;96765.13;5061895;28;20058;-59
2022/03/07 07:41:26;;;;;;;46.60;25.00;;;;;;;6.48;81.38;96729.63;5061667;28;20052;-60
2022/03/07 07:43:53;;;;;;;42.42;20.60;;;;;;;6.79;80.96;96746.22;5063168;28;20056;-64
2022/03/07 07:46:20;;;;;;;32.47;16.38;;;;;;;6.56;77.44;96684.63;5062760;28;20058;-58
2022/03/07 07:48:47;;;;;;;24.77;13.95;;;;;;;6.85;76.67;96728.28;5061905;28;20345;-56
2022/03/07 07:51:14;;;;;;;31.58;18.75;;;;;;;6.03;76.91;96627.41;5060577;28;20137;-58
2022/03/07 07:53:41;;;;;;;41.03;21.80;;;;;;;6.86;77.82;96756.63;5063154;28;20059;-56
2022/03/07 07:56:08;;;;;;;33.20;17.98;;;;;;;6.32;76.70;96654.53;5060613;28;20044;-60
2022/03/07 07:58:35;;;;;;;34.28;17.60;;;;;;;7.04;76.65;96757.84;5060779;28;20048;-60
2022/03/07 08:01:03;;;;;;;23.02;10.82;;;;;;;6.71;75.05;96689.38;5051741;28;20055;-64
2022/03/07 08:03:30;;;;;;;11.40;6.15;;;;;;;7.16;74.85;96779.81;5062428;28;20114;-55
2022/03/07 08:05:57;;;;;;;13.55;6.57;;;;;;;7.27;75.77;96756.88;5062302;28;20117;-55
2022/03/07 08:08:24;;;;;;;14.52;8.00;;;;;;;7.27;73.22;96756.88;5062572;28;20522;-63
2022/03/07 08:10:51;;;;;;;9.15;4.63;;;;;;;7.05;73.82;96735.47;5061954;28;20551;-61
2022/03/07 08:13:17;;;;;;;4.88;2.65;;;;;;;7.13;73.62;96740.00;5061217;28;20146;-63
2022/03/07 08:15:44;;;;;;;7.53;4.18;;;;;;;7.15;74.33;96715.66;5062405;28;20052;-61
2022/03/07 08:18:11;;;;;;;5.13;3.25;;;;;;;6.78;73.65;96667.53;5061819;28;20056;-66
2022/03/07 08:20:38;;;;;;;8.18;4.10;;;;;;;6.36;74.27;96621.63;5059960;28;20048;-61
2022/03/07 08:23:05;;;;;;;5.70;3.40;;;;;;;7.40;73.87;96743.81;5062435;28;20060;-59
2022/03/07 08:25:32;;;;;;;7.18;4.32;;;;;;;7.33;72.67;96725.16;5063001;28;20049;-59
2022/03/07 08:28:00;;;;;;;6.10;3.45;;;;;;;7.14;73.13;96692.06;5060864;28;20567;-60
2022/03/07 08:30:28;;;;;;;8.52;4.28;;;;;;;7.22;73.53;96704.81;5060843;28;20057;-60
2022/03/07 08:32:56;;;;;;;6.55;4.05;;;;;;;7.52;71.84;96747.25;5065043;28;20060;-56
2022/03/07 08:35:23;;;;;;;8.63;4.38;;;;;;;7.54;72.17;96752.41;5066104;28;20059;-59
2022/03/07 08:37:52;;;;;;;9.43;4.93;;;;;;;7.65;72.72;96757.03;5066111;28;20071;-57
2022/03/07 08:40:20;;;;;;;9.05;4.57;;;;;;;5.78;73.54;96485.75;5065699;28;20047;-62
2022/03/07 08:42:48;;;;;;;7.38;4.55;;;;;;;7.65;73.35;96761.72;5066473;28;20616;-64
2022/03/07 08:45:19;;;;;;;8.43;4.93;;;;;;;7.25;73.75;96770.22;5065893;28;20550;-62
2022/03/07 08:47:52;;;;;;;9.57;4.88;;;;;;;7.42;73.40;96758.84;5061984;28;20056;-61
2022/03/07 08:50:19;;;;;;;6.78;4.57;;;;;;;7.44;73.78;96756.53;5066233;28;20049;-60
2022/03/07 08:52:46;;;;;;;9.68;5.70;;;;;;;7.08;73.74;96737.50;5061637;28;20083;-60
2022/03/07 08:55:14;;;;;;;10.07;5.60;;;;;;;7.35;73.57;96763.38;5052625;28;20047;-64
2022/03/07 08:57:41;;;;;;;18.48;8.98;;;;;;;6.87;74.85;96766.47;5065744;28;20071;-56
2022/03/07 09:00:10;;;;;;;11.98;7.13;;;;;;;6.73;75.23;96739.38;5064940;28;20048;-61
2022/03/07 09:02:46;;;;;;;13.07;7.55;;;;;;;6.86;76.03;96757.41;5065281;28;20511;-56
2022/03/07 09:05:13;;;;;;;9.45;5.78;;;;;;;6.61;75.31;96694.63;5066182;28;20121;-59
2022/03/07 09:07:39;;;;;;;9.18;5.35;;;;;;;7.26;75.20;96758.06;5065741;28;20052;-63
2022/03/07 09:10:06;;;;;;;7.72;4.88;;;;;;;7.40;73.54;96749.31;5064936;28;20052;-57
2022/03/07 09:12:33;;;;;;;8.65;5.13;;;;;;;7.56;73.16;96747.34;5065762;28;20051;-57
2022/03/07 09:15:04;;;;;;;10.63;5.68;;;;;;;8.10;71.31;96750.16;5065785;28;20054;-64
2022/03/07 09:17:31;;;;;;;5.68;3.78;;;;;;;8.02;69.04;96715.28;5065025;28;20049;-56
2022/03/07 09:19:58;;;;;;;6.45;4.28;;;;;;;8.38;68.92;96739.72;5064759;28;20063;-56
2022/03/07 09:22:29;;;;;;;7.65;3.63;;;;;;;8.73;67.17;96745.97;5063791;28;20049;-56
2022/03/07 09:24:56;;;;;;;2.75;2.13;;;;;;;7.79;67.84;96706.13;5065395;28;20060;-65
2022/03/07 09:27:23;;;;;;;5.65;3.22;;;;;;;7.49;71.75;96747.19;5062329;28;20538;-55
2022/03/07 09:29:50;;;;;;;4.53;3.10;;;;;;;7.36;69.60;96688.66;5064436;28;20055;-56
2022/03/07 09:32:17;;;;;;;2.88;2.50;;;;;;;7.61;71.17;96767.19;5060828;28;20053;-58
2022/03/07 09:34:44;;;;;;;3.30;2.35;;;;;;;7.99;69.61;96744.41;5063623;28;20146;-62
2022/03/07 09:37:11;;;;;;;3.50;2.30;;;;;;;7.91;68.92;96697.72;5064079;28;20088;-61
2022/03/07 09:39:38;;;;;;;5.05;3.58;;;;;;;7.84;69.10;96686.56;5065895;28;20058;-65
2022/03/07 09:42:05;;;;;;;2.28;1.55;;;;;;;7.99;68.67;96744.41;5064458;28;20048;-56
2022/03/07 09:44:33;;;;;;;2.15;1.65;;;;;;;7.38;70.59;96669.78;5063257;28;20084;-57
2022/03/07 09:47:01;;;;;;;1.75;1.35;;;;;;;7.86;68.54;96742.13;5064241;28;20597;-62
2022/03/07 09:49:29;;;;;;;2.33;1.40;;;;;;;7.71;69.75;96739.03;5050069;28;20045;-66
2022/03/07 09:51:56;;;;;;;3.63;1.95;;;;;;;7.01;70.75;96745.63;5063766;28;20056;-55
2022/03/07 09:54:23;;;;;;;2.75;2.17;;;;;;;7.72;69.33;96748.94;5065034;28;20052;-55
2022/03/07 09:56:51;;;;;;;4.43;2.78;;;;;;;8.00;68.00;96745.22;5063751;28;20059;-56
2022/03/07 09:59:19;;;;;;;3.58;2.30;;;;;;;8.18;67.62;96747.19;5065094;28;20060;-55
2022/03/07 10:01:59;;;;;;;4.43;2.15;;;;;;;8.06;68.04;96738.25;5064011;28;20070;-61
2022/03/07 10:04:28;;;;;;;3.10;1.85;;;;;;;7.87;67.30;96707.91;5065015;28;20104;-56
2022/03/07 10:06:55;;;;;;;3.38;1.70;;;;;;;8.24;67.37;96740.25;5064397;28;20052;-60
2022/03/07 10:09:25;;;;;;;3.50;1.83;;;;;;;8.23;66.07;96733.16;5065276;28;20503;-62
2022/03/07 10:11:55;;;;;;;3.92;2.15;;;;;;;7.28;69.29;96648.31;5063833;28;20048;-62
2022/03/07 10:14:42;;;;;;;3.17;2.00;;;;;;;7.98;67.79;96736.50;5065389;28;20063;-55
2022/03/07 10:17:26;;;;;;;5.30;2.35;;;;;;;7.56;67.15;96648.13;5064749;28;20056;-56
2022/03/07 10:19:54;;;;;;;3.78;2.50;;;;;;;8.14;67.06;96735.25;5063024;28;20136;-61
2022/03/07 10:22:26;;;;;;;6.30;3.63;;;;;;;8.10;67.69;96739.13;5064445;28;20056;-61
2022/03/07 10:24:59;;;;;;;5.05;2.88;;;;;;;8.05;68.51;96739.41;5064341;28;20052;-58
2022/03/07 10:27:33;;;;;;;4.13;2.10;;;;;;;7.54;69.13;96739.44;5064990;28;20048;-56
2022/03/07 10:30:01;;;;;;;2.85;1.90;;;;;;;7.44;69.98;96740.00;5062965;28;20045;-61
2022/03/07 10:32:30;;;;;;;4.97;2.75;;;;;;;8.04;67.90;96735.03;5073209;28;20426;-60
2022/03/07 10:34:56;;;;;;;5.80;2.95;;;;;;;8.01;67.37;96699.91;5083985;28;20052;-61
2022/03/07 10:37:38;;;;;;;4.72;2.90;;;;;;;8.32;66.37;96730.97;5084533;28;20590;-61
2022/03/07 10:40:21;;;;;;;4.60;3.10;;;;;;;8.36;65.19;96708.97;5084620;28;20138;-55
2022/03/07 10:42:51;;;;;;;3.47;2.25;;;;;;;7.90;64.27;96650.06;5084513;28;20108;-56
2022/03/07 10:45:18;;;;;;;5.53;3.17;;;;;;;7.64;65.46;96590.06;5082525;28;20446;-58
2022/03/07 10:48:00;;;;;;;4.30;2.75;;;;;;;7.98;65.35;96709.72;5082953;28;20056;-55
2022/03/07 10:50:28;;;;;;;4.20;2.15;;;;;;;8.29;65.22;96714.31;5084304;28;20048;-61
2022/03/07 10:53:02;;;;;;;2.83;1.95;;;;;;;8.26;64.85;96712.28;5083216;28;20080;-61
2022/03/07 10:55:30;;;;;;;;;;;;;;;8.61;65.06;96696.44;5075083;28;20056;-56
2022/03/07 10:58:08;;;;;;;4.53;3.35;;;;;;;9.12;61.97;96703.25;5063976;28;19963;-56
2022/03/07 11:00:53;;;;;;;3.45;2.50;;;;;;;9.08;62.76;96707.94;5063895;28;20058;-55
2022/03/07 11:03:26;;;;;;;4.28;2.60;;;;;;;8.55;65.13;96693.16;5063737;28;20526;-56
2022/03/07 11:05:53;;;;;;;2.05;1.73;;;;;;;9.12;62.27;96679.19;5063902;28;20060;-56
2022/03/07 11:08:22;;;;;;;3.70;2.47;;;;;;;9.35;60.20;96695.75;5062824;28;20094;-55
2022/03/07 11:10:52;;;;;;;4.10;2.60;;;;;;;9.47;60.19;96698.31;5063960;28;20063;-55
2022/03/07 11:13:26;;;;;;;7.28;4.60;;;;;;;9.39;60.17;96691.06;5062172;28;20056;-56
2022/03/07 11:15:56;;;;;;;4.25;3.05;;;;;;;9.35;60.74;96693.00;5063544;28;20049;-60
2022/03/07 11:18:26;;;;;;;7.50;4.07;;;;;;;9.32;61.71;96688.22;5062510;28;20143;-60
2022/03/07 11:20:55;;;;;;;5.60;3.15;;;;;;;8.22;64.82;96678.31;5064216;28;20066;-60
2022/03/07 11:23:22;;;;;;;6.50;3.60;;;;;;;7.98;66.71;96678.59;5063474;28;20060;-56
2022/03/07 11:25:50;;;;;;;6.20;3.53;;;;;;;8.48;62.53;96646.13;5062420;28;20105;-59
2022/03/07 11:28:18;;;;;;;5.82;4.05;;;;;;;8.74;62.78;96675.78;5063876;28;20106;-58
2022/03/07 11:30:45;;;;;;;8.10;4.05;;;;;;;8.86;62.53;96634.16;5063386;28;20569;-61